Terminal Aerodrome Forecast
Issued by NWS

Home | Current Version | Previous Version | Text Only | Print | Product List | Glossary On
Versions: 1 2 3 4 5 6 7 8 9 10 11 12 13 14 15 16 17
000
FTUS46 KSEW 181600 AAC
TAFPAE
TAF AMD
KPAE 181624Z 1816/1912 15007KT P6SM OVC040
     FM181800 15010KT P6SM SCT012 BKN050 OVC080
     FM190100 15012G22KT P6SM -RA OVC035
     FM190600 18013G20KT 6SM -RA BR OVC020=

USA.gov is the U.S. government's official web portal to all federal, state and local government web resources and services.